BYU weather

Bayreuth Airport
Bayreuth, Bavaria, Germany

Public forecast

Using degrees Celsius for public forecast. Weather courtesy of forecast.io.

METAR (pilot weather report)

Closest report is Hof-Plauen Airport, 20.0 nm (37.1 km) NNE. Retrieved 2019/07/24 05:20 UTC (30 minutes ago):

EDQM 240520Z 00000KT CAVOK 21/12 Q1020

TAF (pilot weather forecast)

Forecast is more than 6 hours old.

Closest forecast is Grafenwohr Army Air Field, 20.8 nm (38.4 km) SE. Retrieved 2019/07/23 22:07 UTC (8 hours ago):

TAF ETIC 232205Z 2322/2504 VRB06KT 9999 SKC QNH3004INS TX33/2415Z TN14/2404Z